createdAt,value
2023-02-28T00:00:16.820Z,-2.26
2023-02-28T00:01:16.310Z,-2.29
2023-02-28T00:02:16.782Z,-2.29
2023-02-28T00:03:16.388Z,-2.32
2023-02-28T00:04:16.981Z,-2.31
2023-02-28T00:05:16.516Z,-2.34
2023-02-28T00:06:17.015Z,-2.31
2023-02-28T00:07:16.506Z,-2.32
2023-02-28T00:08:17.017Z,-2.28
2023-02-28T00:09:16.523Z,-2.28
2023-02-28T00:10:17.028Z,-2.25
2023-02-28T00:11:16.520Z,-2.29
2023-02-28T00:12:16.409Z,-2.32
2023-02-28T00:13:16.942Z,-2.29
2023-02-28T00:14:16.468Z,-2.29
2023-02-28T00:15:16.983Z,-2.31
2023-02-28T00:16:16.547Z,-2.29
2023-02-28T00:17:17.141Z,-2.29
2023-02-28T00:18:16.647Z,-2.29
2023-02-28T00:19:17.135Z,-2.28
2023-02-28T00:20:16.662Z,-2.28
2023-02-28T00:21:17.164Z,-2.26
2023-02-28T00:22:16.653Z,-2.26
2023-02-28T00:23:17.201Z,-2.31
2023-02-28T00:24:16.715Z,-2.25
2023-02-28T00:25:17.236Z,-2.23
2023-02-28T00:26:16.749Z,-2.26
2023-02-28T00:27:17.243Z,-2.25
2023-02-28T00:28:16.752Z,-2.22
2023-02-28T00:29:17.281Z,-2.21
2023-02-28T00:30:16.785Z,-2.17
2023-02-28T00:31:17.281Z,-2.17
2023-02-28T00:32:16.982Z,-2.17
2023-02-28T00:33:16.522Z,-2.19
2023-02-28T00:34:17.020Z,-2.12
2023-02-28T00:35:16.509Z,-2.14
2023-02-28T00:36:17.000Z,-2.12
2023-02-28T00:37:16.541Z,-2.08
2023-02-28T00:38:17.074Z,-2.05
2023-02-28T00:39:16.552Z,-2.07
2023-02-28T00:40:17.056Z,-2.07
2023-02-28T00:41:16.558Z,-2.08
2023-02-28T00:42:16.549Z,-2.05
2023-02-28T00:43:17.071Z,-2.05
2023-02-28T00:44:16.562Z,-2.05
2023-02-28T00:45:17.060Z,-2.01
2023-02-28T00:46:16.588Z,-2.00
2023-02-28T00:47:17.115Z,-1.95
2023-02-28T00:48:16.950Z,-1.95
2023-02-28T00:49:16.455Z,-1.97
2023-02-28T00:50:16.946Z,-1.98
2023-02-28T00:51:16.429Z,-1.97
2023-02-28T00:52:17.127Z,-1.95
2023-02-28T00:53:16.626Z,-1.95
2023-02-28T00:54:17.141Z,-1.97
2023-02-28T00:55:16.648Z,-1.95
2023-02-28T00:56:17.145Z,-1.97
2023-02-28T00:57:16.625Z,-1.94
2023-02-28T00:58:17.114Z,-1.94
2023-02-28T00:59:16.617Z,-1.94
2023-02-28T01:00:17.090Z,-1.90
2023-02-28T01:01:16.606Z,-1.95
2023-02-28T01:02:17.080Z,-1.91
2023-02-28T01:03:16.583Z,-1.95
2023-02-28T01:04:17.135Z,-1.94
2023-02-28T01:05:16.823Z,-1.91
2023-02-28T01:06:16.328Z,-1.90
2023-02-28T01:07:16.815Z,-1.91
2023-02-28T01:08:17.389Z,-1.92
2023-02-28T01:09:16.905Z,-1.94
2023-02-28T01:10:16.383Z,-1.97
2023-02-28T01:11:16.910Z,-1.95
2023-02-28T01:12:17.224Z,-1.97
2023-02-28T01:13:16.733Z,-1.95
2023-02-28T01:14:17.222Z,-1.94
2023-02-28T01:15:16.707Z,-1.95
2023-02-28T01:16:17.287Z,-1.94
2023-02-28T01:17:16.803Z,-1.94
2023-02-28T01:18:16.352Z,-1.98
2023-02-28T01:19:16.841Z,-1.98
2023-02-28T01:20:16.343Z,-1.97
2023-02-28T01:21:16.847Z,-1.94
2023-02-28T01:22:16.351Z,-1.98
2023-02-28T01:23:16.837Z,-1.98
2023-02-28T01:24:16.353Z,-1.94
2023-02-28T01:25:16.857Z,-2.00
2023-02-28T01:26:16.424Z,-2.00
2023-02-28T01:27:16.930Z,-2.02
2023-02-28T01:28:16.408Z,-2.01
2023-02-28T01:29:16.936Z,-2.02
2023-02-28T01:30:16.494Z,-2.01
2023-02-28T01:31:17.030Z,-1.95
2023-02-28T01:32:16.561Z,-1.97
2023-02-28T01:33:17.210Z,-1.98
2023-02-28T01:34:16.723Z,-2.02
2023-02-28T01:35:17.201Z,-2.00
2023-02-28T01:36:16.694Z,-2.02
2023-02-28T01:37:17.164Z,-2.04
2023-02-28T01:38:22.393Z,-2.04
2023-02-28T01:39:16.933Z,-2.05
2023-02-28T01:40:16.424Z,-2.05
2023-02-28T01:41:16.913Z,-2.07
2023-02-28T01:42:16.607Z,-2.02
2023-02-28T01:43:17.074Z,-2.05
2023-02-28T01:44:16.583Z,-2.08
2023-02-28T01:45:17.088Z,-2.08
2023-02-28T01:46:16.630Z,-2.08
2023-02-28T01:47:17.143Z,-2.08
2023-02-28T01:48:16.713Z,-2.08
2023-02-28T01:49:17.224Z,-2.14
2023-02-28T01:50:16.729Z,-2.08
2023-02-28T01:51:17.229Z,-2.11
2023-02-28T01:52:17.294Z,-2.05
2023-02-28T01:53:16.833Z,-2.05
2023-02-28T01:54:16.373Z,-2.07
2023-02-28T01:55:16.859Z,-2.07
2023-02-28T01:56:16.339Z,-1.98
2023-02-28T01:57:16.810Z,-2.01
2023-02-28T01:58:17.332Z,-2.05
2023-02-28T01:59:16.848Z,-2.04
2023-02-28T02:00:16.408Z,-2.04
2023-02-28T02:01:16.951Z,-2.08
2023-02-28T02:02:16.617Z,-2.04
2023-02-28T02:03:17.395Z,-2.08
2023-02-28T02:04:16.944Z,-2.07
2023-02-28T02:05:16.473Z,-2.08
2023-02-28T02:06:16.953Z,-2.04
2023-02-28T02:07:16.448Z,-2.05
2023-02-28T02:08:16.967Z,-2.07
2023-02-28T02:09:16.462Z,-2.07
2023-02-28T02:10:16.953Z,-2.07
2023-02-28T02:11:16.463Z,-2.07
2023-02-28T02:12:17.004Z,-2.08
2023-02-28T02:13:16.524Z,-2.07
2023-02-28T02:14:17.035Z,-2.05
2023-02-28T02:15:16.540Z,-2.07
2023-02-28T02:16:17.062Z,-2.08
2023-02-28T02:17:16.672Z,-2.07
2023-02-28T02:18:17.224Z,-2.08
2023-02-28T02:19:16.730Z,-2.07
2023-02-28T02:20:17.258Z,-2.08
2023-02-28T02:21:16.791Z,-2.07
2023-02-28T02:22:16.569Z,-2.09
2023-02-28T02:23:17.081Z,-2.09
2023-02-28T02:24:16.574Z,-2.11
2023-02-28T02:25:17.092Z,-2.05
2023-02-28T02:26:16.569Z,-2.05
2023-02-28T02:27:17.068Z,-2.07
2023-02-28T02:28:16.542Z,-2.05
2023-02-28T02:29:17.042Z,-2.07
2023-02-28T02:30:18.177Z,-2.07
2023-02-28T02:31:17.159Z,-2.01
2023-02-28T02:32:16.779Z,-2.04
2023-02-28T02:33:16.395Z,-2.08
2023-02-28T02:34:16.923Z,-2.07
2023-02-28T02:35:16.483Z,-2.08
2023-02-28T02:36:16.963Z,-2.09
2023-02-28T02:37:16.487Z,-2.12
2023-02-28T02:38:17.219Z,-2.14
2023-02-28T02:39:16.758Z,-2.14
2023-02-28T02:40:17.237Z,-2.11
2023-02-28T02:41:16.782Z,-2.11
2023-02-28T02:42:17.018Z,-2.11
2023-02-28T02:43:16.521Z,-2.11
2023-02-28T02:44:17.004Z,-2.11
2023-02-28T02:45:16.509Z,-2.08
2023-02-28T02:46:17.028Z,-2.08
2023-02-28T02:47:16.627Z,-2.12
2023-02-28T02:48:17.145Z,-2.11
2023-02-28T02:49:16.647Z,-2.14
2023-02-28T02:50:17.178Z,-2.11
2023-02-28T02:51:16.700Z,-2.12
2023-02-28T02:52:16.374Z,-2.14
2023-02-28T02:53:16.871Z,-2.15
2023-02-28T02:54:16.384Z,-2.19
2023-02-28T02:55:16.876Z,-2.19
2023-02-28T02:56:16.378Z,-2.18
2023-02-28T02:57:16.901Z,-2.14
2023-02-28T02:58:16.388Z,-2.11
2023-02-28T02:59:16.897Z,-2.14
2023-02-28T03:00:16.418Z,-2.17
2023-02-28T03:01:16.974Z,-2.17
2023-02-28T03:02:16.369Z,-2.17
2023-02-28T03:03:16.838Z,-2.19
2023-02-28T03:04:16.335Z,-2.19
2023-02-28T03:05:16.810Z,-2.19
2023-02-28T03:06:17.307Z,-2.18
2023-02-28T03:07:16.838Z,-2.18
2023-02-28T03:08:16.359Z,-2.22
2023-02-28T03:09:16.857Z,-2.21
2023-02-28T03:10:16.392Z,-2.21
2023-02-28T03:11:16.898Z,-2.19
2023-02-28T03:12:16.445Z,-2.19
2023-02-28T03:13:16.964Z,-2.15
2023-02-28T03:14:16.506Z,-2.17
2023-02-28T03:15:16.996Z,-2.18
2023-02-28T03:16:16.502Z,-2.17
2023-02-28T03:17:17.047Z,-2.14
2023-02-28T03:18:16.525Z,-2.17
2023-02-28T03:19:17.037Z,-2.17
2023-02-28T03:20:16.563Z,-2.15
2023-02-28T03:21:17.063Z,-2.18
2023-02-28T03:22:16.405Z,-2.17
2023-02-28T03:23:16.924Z,-2.17
2023-02-28T03:24:16.422Z,-2.15
2023-02-28T03:25:16.918Z,-2.14
2023-02-28T03:26:16.409Z,-2.12
2023-02-28T03:27:16.950Z,-2.12
2023-02-28T03:28:16.502Z,-2.14
2023-02-28T03:29:17.008Z,-2.15
2023-02-28T03:30:16.514Z,-2.18
2023-02-28T03:31:17.023Z,-2.18
2023-02-28T03:32:16.631Z,-2.18
2023-02-28T03:33:16.349Z,-2.18
2023-02-28T03:34:16.877Z,-2.14
2023-02-28T03:35:16.375Z,-2.15
2023-02-28T03:36:16.875Z,-2.14
2023-02-28T03:37:16.472Z,-2.14
2023-02-28T03:38:17.073Z,-2.15
2023-02-28T03:39:16.669Z,-2.18
2023-02-28T03:40:17.198Z,-2.18
2023-02-28T03:41:16.669Z,-2.18
2023-02-28T03:42:16.737Z,-2.18
2023-02-28T03:43:17.227Z,-2.19
2023-02-28T03:44:16.696Z,-2.17
2023-02-28T03:45:17.191Z,-2.21
2023-02-28T03:46:16.805Z,-2.17
2023-02-28T03:47:16.464Z,-2.14
2023-02-28T03:48:16.938Z,-2.15
2023-02-28T03:49:16.474Z,-2.17
2023-02-28T03:50:17.032Z,-2.17
2023-02-28T03:51:16.602Z,-2.14
2023-02-28T03:52:16.900Z,-2.17
2023-02-28T03:53:16.387Z,-2.18
2023-02-28T03:54:16.886Z,-2.19
2023-02-28T03:55:16.457Z,-2.22
2023-02-28T03:56:16.938Z,-2.23
2023-02-28T03:57:16.443Z,-2.21
2023-02-28T03:58:16.984Z,-2.21
2023-02-28T03:59:16.458Z,-2.19
2023-02-28T04:00:16.966Z,-2.19
2023-02-28T04:01:16.654Z,-2.18
2023-02-28T04:02:16.903Z,-2.17
2023-02-28T04:03:16.405Z,-2.18
2023-02-28T04:04:16.912Z,-2.21
2023-02-28T04:05:16.525Z,-2.18
2023-02-28T04:06:17.030Z,-2.17
2023-02-28T04:07:16.552Z,-2.18
2023-02-28T04:08:17.054Z,-2.22
2023-02-28T04:09:16.575Z,-2.21
2023-02-28T04:10:17.076Z,-2.19
2023-02-28T04:11:16.565Z,-2.23
2023-02-28T04:12:17.333Z,-2.23
2023-02-28T04:13:16.840Z,-2.23
2023-02-28T04:14:16.381Z,-2.23
2023-02-28T04:15:16.900Z,-2.23
2023-02-28T04:16:28.460Z,-2.23
2023-02-28T04:17:17.045Z,-2.25
2023-02-28T04:18:16.531Z,-2.19
2023-02-28T04:19:17.023Z,-2.21
2023-02-28T04:20:16.544Z,-2.26
2023-02-28T04:21:17.050Z,-2.22
2023-02-28T04:22:17.285Z,-2.23
2023-02-28T04:23:16.779Z,-2.26
2023-02-28T04:24:17.335Z,-2.23
2023-02-28T04:25:16.903Z,-2.26
2023-02-28T04:26:16.386Z,-2.25
2023-02-28T04:27:16.896Z,-2.22
2023-02-28T04:28:16.397Z,-2.21
2023-02-28T04:29:16.912Z,-2.25
2023-02-28T04:30:16.433Z,-2.23
2023-02-28T04:31:16.948Z,-2.23
2023-02-28T04:32:16.514Z,-2.22
2023-02-28T04:33:16.310Z,-2.23
2023-02-28T04:34:16.820Z,-2.22
2023-02-28T04:35:16.363Z,-2.21
2023-02-28T04:36:17.009Z,-2.25
2023-02-28T04:37:16.531Z,-2.26
2023-02-28T04:38:17.018Z,-2.26
2023-02-28T04:39:16.509Z,-2.26
2023-02-28T04:40:16.990Z,-2.25
2023-02-28T04:41:16.502Z,-2.28
2023-02-28T04:42:17.239Z,-2.25
2023-02-28T04:43:16.769Z,-2.22
2023-02-28T04:44:17.257Z,-2.26
2023-02-28T04:45:16.761Z,-2.26
2023-02-28T04:46:17.296Z,-2.28
2023-02-28T04:47:16.810Z,-2.25
2023-02-28T04:48:16.329Z,-2.22
2023-02-28T04:49:16.794Z,-2.22
2023-02-28T04:50:17.290Z,-2.21
2023-02-28T04:51:16.807Z,-2.18
2023-02-28T04:52:16.454Z,-2.21
2023-02-28T04:53:16.943Z,-2.21
2023-02-28T04:54:16.456Z,-2.21
2023-02-28T04:55:16.932Z,-2.18
2023-02-28T04:56:16.450Z,-2.15
2023-02-28T04:57:16.962Z,-2.18
2023-02-28T04:58:16.486Z,-2.18
2023-02-28T04:59:16.986Z,-2.19
2023-02-28T05:00:16.501Z,-2.19
2023-02-28T05:01:17.031Z,-2.15
2023-02-28T05:02:16.337Z,-2.17
2023-02-28T05:03:16.898Z,-2.15
2023-02-28T05:04:16.396Z,-2.14
2023-02-28T05:05:16.935Z,-2.14
2023-02-28T05:06:16.435Z,-2.15
2023-02-28T05:07:16.946Z,-2.15
2023-02-28T05:08:16.473Z,-2.15
2023-02-28T05:09:16.962Z,-2.17
2023-02-28T05:10:16.485Z,-2.14
2023-02-28T05:11:16.968Z,-2.15
2023-02-28T05:12:16.796Z,-2.14
2023-02-28T05:13:16.334Z,-2.11
2023-02-28T05:14:16.834Z,-2.09
2023-02-28T05:15:16.352Z,-2.12
2023-02-28T05:16:16.925Z,-2.11
2023-02-28T05:17:16.531Z,-2.12
2023-02-28T05:18:17.083Z,-2.12
2023-02-28T05:19:16.564Z,-2.14
2023-02-28T05:20:17.036Z,-2.14
2023-02-28T05:21:16.522Z,-2.15
2023-02-28T05:22:16.340Z,-2.15
2023-02-28T05:23:16.847Z,-2.14
2023-02-28T05:24:16.340Z,-2.15
2023-02-28T05:25:16.865Z,-2.11
2023-02-28T05:26:16.390Z,-2.12
2023-02-28T05:27:16.927Z,-2.12
2023-02-28T05:28:16.414Z,-2.12
2023-02-28T05:29:16.924Z,-2.09
2023-02-28T05:30:16.433Z,-2.08
2023-02-28T05:31:16.918Z,-2.11
2023-02-28T05:32:16.385Z,-2.09
2023-02-28T05:33:16.947Z,-2.15
2023-02-28T05:34:16.406Z,-2.15
2023-02-28T05:35:16.968Z,-2.14
2023-02-28T05:36:16.454Z,-2.14
2023-02-28T05:37:16.975Z,-2.14
2023-02-28T05:38:16.451Z,-2.12
2023-02-28T05:39:16.942Z,-2.17
2023-02-28T05:40:16.468Z,-2.21
2023-02-28T05:41:16.962Z,-2.19
2023-02-28T05:42:16.779Z,-2.21
2023-02-28T05:43:17.348Z,-2.15
2023-02-28T05:44:16.826Z,-2.18
2023-02-28T05:45:16.383Z,-2.18
2023-02-28T05:46:16.921Z,-2.18
2023-02-28T05:47:16.480Z,-2.18
2023-02-28T05:48:17.008Z,-2.18
2023-02-28T05:49:16.486Z,-2.19
2023-02-28T05:50:16.982Z,-2.19
2023-02-28T05:51:16.490Z,-2.15
2023-02-28T05:52:16.846Z,-2.18
2023-02-28T05:53:16.321Z,-2.18
2023-02-28T05:54:16.815Z,-2.17
2023-02-28T05:55:16.329Z,-2.18
2023-02-28T05:56:16.826Z,-2.18
2023-02-28T05:57:24.263Z,-2.17
2023-02-28T05:58:16.376Z,-2.18
2023-02-28T05:59:16.877Z,-2.17
2023-02-28T06:00:16.357Z,-2.15
2023-02-28T06:01:16.807Z,-2.15
2023-02-28T06:02:16.350Z,-2.19
2023-02-28T06:03:16.995Z,-2.18
2023-02-28T06:04:25.752Z,-2.17
2023-02-28T06:05:17.146Z,-2.17
2023-02-28T06:06:16.633Z,-2.15
2023-02-28T06:07:17.145Z,-2.18
2023-02-28T06:08:16.665Z,-2.18
2023-02-28T06:09:17.165Z,-2.19
2023-02-28T06:10:16.699Z,-2.18
2023-02-28T06:11:17.223Z,-2.21
2023-02-28T06:12:17.197Z,-2.18
2023-02-28T06:13:16.707Z,-2.18
2023-02-28T06:14:17.176Z,-2.18
2023-02-28T06:15:16.657Z,-2.17
2023-02-28T06:16:17.253Z,-2.17
2023-02-28T06:17:16.803Z,-2.19
2023-02-28T06:18:16.309Z,-2.17
2023-02-28T06:19:16.808Z,-2.14
2023-02-28T06:20:17.287Z,-2.15
2023-02-28T06:21:16.780Z,-2.17
2023-02-28T06:22:16.574Z,-2.12
2023-02-28T06:23:17.057Z,-2.09
2023-02-28T06:24:16.552Z,-2.12
2023-02-28T06:25:17.054Z,-2.09
2023-02-28T06:26:16.546Z,-2.09
2023-02-28T06:27:17.029Z,-2.07
2023-02-28T06:28:16.563Z,-2.07
2023-02-28T06:29:17.057Z,-2.09
2023-02-28T06:30:16.568Z,-2.09
2023-02-28T06:31:17.176Z,-2.05
2023-02-28T06:32:16.356Z,-2.04
2023-02-28T06:33:16.974Z,-2.00
2023-02-28T06:34:16.477Z,-2.01
2023-02-28T06:35:16.999Z,-2.01
2023-02-28T06:36:16.533Z,-1.97
2023-02-28T06:37:17.030Z,-1.92
2023-02-28T06:38:16.568Z,-1.94
2023-02-28T06:39:17.086Z,-1.94
2023-02-28T06:40:16.577Z,-1.88
2023-02-28T06:41:17.098Z,-1.95
2023-02-28T06:42:16.368Z,-1.95
2023-02-28T06:43:16.883Z,-1.88
2023-02-28T06:44:16.367Z,-1.86
2023-02-28T06:45:16.866Z,-1.84
2023-02-28T06:46:16.378Z,-1.74
2023-02-28T06:47:16.961Z,-1.70
2023-02-28T06:48:16.466Z,-1.67
2023-02-28T06:49:16.960Z,-1.70
2023-02-28T06:50:16.462Z,-1.59
2023-02-28T06:51:16.981Z,-1.53
2023-02-28T06:52:16.560Z,-1.53
2023-02-28T06:53:17.091Z,-1.51
2023-02-28T06:54:16.624Z,-1.46
2023-02-28T06:55:17.156Z,-1.41
2023-02-28T06:56:16.645Z,-1.35
2023-02-28T06:57:17.143Z,-1.29
2023-02-28T06:58:16.647Z,-1.29
2023-02-28T06:59:17.189Z,-1.25
2023-02-28T07:00:16.721Z,-1.17
2023-02-28T07:01:17.262Z,-1.23
2023-02-28T07:02:16.931Z,-1.13
2023-02-28T07:03:16.438Z,-1.07
2023-02-28T07:04:16.988Z,-0.82
2023-02-28T07:05:16.522Z,-0.72
2023-02-28T07:06:17.008Z,-0.76
2023-02-28T07:07:16.522Z,-0.70
2023-02-28T07:08:17.018Z,-0.54
2023-02-28T07:09:16.544Z,-0.41
2023-02-28T07:10:19.073Z,-0.35
2023-02-28T07:11:16.910Z,-0.24
2023-02-28T07:12:16.518Z,-0.33
2023-02-28T07:13:17.017Z,-0.35
2023-02-28T07:14:16.512Z,-0.34
2023-02-28T07:15:17.006Z,-0.20
2023-02-28T07:16:16.562Z,-0.10
2023-02-28T07:17:17.256Z,-0.11
2023-02-28T07:18:16.712Z,0.28
2023-02-28T07:19:17.210Z,0.41
2023-02-28T07:20:16.683Z,0.55
2023-02-28T07:21:17.167Z,0.63
2023-02-28T07:22:16.647Z,0.59
2023-02-28T07:23:17.134Z,0.46
2023-02-28T07:24:16.630Z,0.60
2023-02-28T07:25:17.159Z,0.79
2023-02-28T07:26:16.664Z,0.95
2023-02-28T07:27:17.166Z,1.22
2023-02-28T07:28:16.678Z,1.21
2023-02-28T07:29:17.178Z,1.11
2023-02-28T07:30:16.711Z,1.24
2023-02-28T07:31:17.294Z,1.24
2023-02-28T07:32:16.922Z,1.18
2023-02-28T07:33:16.689Z,1.01
2023-02-28T07:34:17.212Z,1.05
2023-02-28T07:35:16.729Z,1.18
2023-02-28T07:36:17.200Z,0.94
2023-02-28T07:37:16.700Z,0.79
2023-02-28T07:38:17.221Z,0.95
2023-02-28T07:39:16.734Z,0.88
2023-02-28T07:40:17.244Z,0.87
2023-02-28T07:41:16.796Z,1.39
2023-02-28T07:42:16.883Z,1.74
2023-02-28T07:43:16.415Z,1.57
2023-02-28T07:44:16.911Z,1.60
2023-02-28T07:45:16.461Z,1.73
2023-02-28T07:46:17.022Z,1.78
2023-02-28T07:47:16.656Z,1.52
2023-02-28T07:48:17.203Z,1.25
2023-02-28T07:49:16.694Z,1.12
2023-02-28T07:50:17.228Z,1.25
2023-02-28T07:51:16.739Z,1.14
2023-02-28T07:52:16.979Z,1.12
2023-02-28T07:53:16.477Z,1.11
2023-02-28T07:54:16.963Z,1.16
2023-02-28T07:55:16.470Z,1.18
2023-02-28T07:56:17.022Z,1.11
2023-02-28T07:57:16.531Z,1.18
2023-02-28T07:58:17.041Z,1.32
2023-02-28T07:59:16.549Z,1.24
2023-02-28T08:00:17.097Z,1.04
2023-02-28T08:01:16.641Z,1.46
2023-02-28T08:02:16.701Z,1.73
2023-02-28T08:03:16.334Z,1.84
2023-02-28T08:04:16.841Z,1.69
2023-02-28T08:05:16.397Z,1.45
2023-02-28T08:06:17.017Z,1.70
2023-02-28T08:07:16.538Z,1.81
2023-02-28T08:08:17.044Z,1.84
2023-02-28T08:09:16.543Z,1.94
2023-02-28T08:10:17.037Z,1.87
2023-02-28T08:11:16.517Z,1.84
2023-02-28T08:12:17.150Z,1.88
2023-02-28T08:13:16.652Z,1.89
2023-02-28T08:14:17.134Z,1.99
2023-02-28T08:15:16.613Z,1.82
2023-02-28T08:16:17.128Z,1.70
2023-02-28T08:17:16.755Z,1.59
2023-02-28T08:18:17.319Z,1.45
2023-02-28T08:19:16.870Z,1.59
2023-02-28T08:20:16.376Z,1.77
2023-02-28T08:21:16.872Z,1.91
2023-02-28T08:22:16.747Z,1.66
2023-02-28T08:23:17.251Z,1.56
2023-02-28T08:24:16.734Z,1.84
2023-02-28T08:25:17.250Z,1.61
2023-02-28T08:26:16.787Z,1.73
2023-02-28T08:27:17.265Z,2.22
2023-02-28T08:28:16.792Z,1.94
2023-02-28T08:29:17.271Z,1.82
2023-02-28T08:30:16.776Z,1.98
2023-02-28T08:31:17.284Z,2.13
2023-02-28T08:32:28.798Z,2.02
2023-02-28T08:33:16.818Z,1.99
2023-02-28T08:34:16.308Z,1.95
2023-02-28T08:35:16.808Z,1.77
2023-02-28T08:36:16.456Z,2.12
2023-02-28T08:37:17.041Z,2.37
2023-02-28T08:38:16.568Z,2.67
2023-02-28T08:39:17.080Z,2.72
2023-02-28T08:40:16.565Z,2.92
2023-02-28T08:41:17.070Z,2.54
2023-02-28T08:42:16.643Z,1.97
2023-02-28T08:43:17.208Z,1.92
2023-02-28T08:44:16.710Z,2.40
2023-02-28T08:45:17.251Z,2.46
2023-02-28T08:46:16.907Z,2.49
2023-02-28T08:47:16.579Z,2.30
2023-02-28T08:48:19.331Z,2.95
2023-02-28T08:49:17.085Z,3.05
2023-02-28T08:50:16.587Z,3.16
2023-02-28T08:51:17.081Z,3.12
2023-02-28T08:52:16.434Z,3.05
2023-02-28T08:53:16.958Z,2.91
2023-02-28T08:54:16.467Z,2.34
2023-02-28T08:55:16.971Z,3.20
2023-02-28T08:56:16.441Z,3.33
2023-02-28T08:57:16.978Z,3.28
2023-02-28T08:58:16.510Z,3.07
2023-02-28T08:59:17.024Z,3.00
2023-02-28T09:00:16.534Z,3.39
2023-02-28T09:01:17.124Z,3.68
2023-02-28T09:02:16.867Z,3.03
2023-02-28T09:03:16.353Z,2.81
2023-02-28T09:04:18.452Z,2.74
2023-02-28T09:05:16.573Z,2.85
2023-02-28T09:06:17.098Z,3.13
2023-02-28T09:07:16.577Z,3.47
2023-02-28T09:08:17.086Z,3.74
2023-02-28T09:09:16.606Z,3.67
2023-02-28T09:10:17.102Z,3.43
2023-02-28T09:11:16.598Z,3.23
2023-02-28T09:12:17.145Z,3.26
2023-02-28T09:13:16.681Z,2.85
2023-02-28T09:14:17.164Z,3.12
2023-02-28T09:15:16.661Z,2.65
2023-02-28T09:16:17.235Z,2.54
2023-02-28T09:17:16.880Z,3.23
2023-02-28T09:18:16.379Z,3.78
2023-02-28T09:19:16.974Z,4.02
2023-02-28T09:20:16.493Z,3.65
2023-02-28T09:21:17.000Z,3.72
2023-02-28T09:22:16.543Z,3.23
2023-02-28T09:23:17.014Z,3.44
2023-02-28T09:24:16.511Z,3.82
2023-02-28T09:25:17.025Z,3.30
2023-02-28T09:26:16.549Z,3.37
2023-02-28T09:27:17.159Z,2.61
2023-02-28T09:28:16.697Z,2.88
2023-02-28T09:29:17.213Z,2.91
2023-02-28T09:30:16.702Z,3.64
2023-02-28T09:31:17.240Z,3.61
2023-02-28T09:32:16.716Z,3.60
2023-02-28T09:33:17.308Z,3.65
2023-02-28T09:34:16.873Z,4.14
2023-02-28T09:35:16.455Z,3.67
2023-02-28T09:36:16.959Z,3.69
2023-02-28T09:37:16.522Z,3.26
2023-02-28T09:38:17.075Z,3.20
2023-02-28T09:39:16.715Z,3.19
2023-02-28T09:40:17.289Z,3.61
2023-02-28T09:41:16.803Z,4.09
2023-02-28T09:42:16.783Z,4.27
2023-02-28T09:43:17.304Z,3.96
2023-02-28T09:44:16.841Z,4.47
2023-02-28T09:45:16.324Z,4.00
2023-02-28T09:46:16.948Z,4.54
2023-02-28T09:47:16.587Z,4.90
2023-02-28T09:48:17.069Z,3.82
2023-02-28T09:49:16.583Z,4.13
2023-02-28T09:50:17.110Z,4.06
2023-02-28T09:51:16.619Z,4.37
2023-02-28T09:52:16.880Z,5.18
2023-02-28T09:53:16.384Z,4.86
2023-02-28T09:54:16.878Z,4.86
2023-02-28T09:55:16.408Z,4.30
2023-02-28T09:56:16.925Z,3.72
2023-02-28T09:57:16.433Z,4.14
2023-02-28T09:58:16.921Z,4.25
2023-02-28T09:59:16.455Z,4.79
2023-02-28T10:00:18.142Z,5.24
2023-02-28T10:01:16.839Z,5.31
2023-02-28T10:02:16.927Z,5.13
2023-02-28T10:03:16.411Z,5.00
2023-02-28T10:04:16.944Z,4.17
2023-02-28T10:05:16.560Z,4.50
2023-02-28T10:06:17.085Z,4.82
2023-02-28T10:07:16.599Z,4.58
2023-02-28T10:08:17.123Z,4.62
2023-02-28T10:09:16.622Z,4.69
2023-02-28T10:10:17.176Z,4.37
2023-02-28T10:11:16.654Z,4.33
2023-02-28T10:12:16.375Z,4.33
2023-02-28T10:13:16.854Z,4.72
2023-02-28T10:14:16.366Z,4.45
2023-02-28T10:15:16.848Z,3.85
2023-02-28T10:16:16.409Z,4.12
2023-02-28T10:17:17.054Z,4.42
2023-02-28T10:18:16.542Z,4.30
2023-02-28T10:19:17.213Z,4.55
2023-02-28T10:20:16.798Z,4.83
2023-02-28T10:21:16.308Z,4.59
2023-02-28T10:22:16.951Z,4.71
2023-02-28T10:23:16.495Z,4.80
2023-02-28T10:24:17.016Z,4.89
2023-02-28T10:25:16.531Z,4.37
2023-02-28T10:26:17.093Z,4.41
2023-02-28T10:27:16.697Z,4.42
2023-02-28T10:28:17.187Z,4.38
2023-02-28T10:29:16.677Z,4.92
2023-02-28T10:30:17.171Z,4.57
2023-02-28T10:31:16.693Z,4.54
2023-02-28T10:32:17.262Z,4.50
2023-02-28T10:33:16.935Z,4.89
2023-02-28T10:34:16.543Z,5.00
2023-02-28T10:35:17.062Z,4.07
2023-02-28T10:36:16.621Z,4.58
2023-02-28T10:37:17.224Z,5.20
2023-02-28T10:38:16.727Z,5.14
2023-02-28T10:39:17.214Z,5.10
2023-02-28T10:40:16.747Z,5.59
2023-02-28T10:41:18.252Z,6.17
2023-02-28T10:42:16.753Z,5.93
2023-02-28T10:43:17.370Z,5.77
2023-02-28T10:44:16.927Z,6.12
2023-02-28T10:45:16.476Z,6.60
2023-02-28T10:46:17.014Z,6.05
2023-02-28T10:47:16.560Z,5.92
2023-02-28T10:48:17.112Z,5.80
2023-02-28T10:49:16.605Z,5.45
2023-02-28T10:50:17.104Z,5.20
2023-02-28T10:51:16.617Z,5.66
2023-02-28T10:52:16.900Z,5.39
2023-02-28T10:53:16.413Z,6.08
2023-02-28T10:54:17.235Z,6.21
2023-02-28T10:55:16.723Z,6.08
2023-02-28T10:56:17.217Z,5.87
2023-02-28T10:57:16.711Z,5.37
2023-02-28T10:58:17.248Z,5.38
2023-02-28T10:59:16.741Z,5.31
2023-02-28T11:00:17.237Z,5.87
2023-02-28T11:01:16.955Z,5.58
2023-02-28T11:02:16.517Z,5.51
2023-02-28T11:03:17.040Z,5.27
2023-02-28T11:04:16.591Z,5.06
2023-02-28T11:05:17.175Z,5.06
2023-02-28T11:06:16.662Z,5.04
2023-02-28T11:07:17.193Z,5.80
2023-02-28T11:08:17.261Z,5.90
2023-02-28T11:09:16.782Z,6.12
2023-02-28T11:10:17.301Z,6.36
2023-02-28T11:11:16.790Z,6.18
2023-02-28T11:12:16.286Z,6.32
2023-02-28T11:13:16.770Z,5.96
2023-02-28T11:14:17.241Z,5.65
2023-02-28T11:15:16.781Z,5.39
2023-02-28T11:16:16.358Z,5.83
2023-02-28T11:17:17.022Z,6.01
2023-02-28T11:18:18.075Z,5.25
2023-02-28T11:19:16.509Z,5.46
2023-02-28T11:20:17.032Z,5.28
2023-02-28T11:21:16.556Z,5.11
2023-02-28T11:22:16.933Z,5.17
2023-02-28T11:23:16.471Z,5.46
2023-02-28T11:24:16.938Z,5.45
2023-02-28T11:25:16.437Z,5.35
2023-02-28T11:26:16.941Z,5.75
2023-02-28T11:27:16.433Z,5.89
2023-02-28T11:28:16.961Z,5.93
2023-02-28T11:29:16.443Z,6.15
2023-02-28T11:30:17.163Z,5.55
2023-02-28T11:31:16.790Z,5.42
2023-02-28T11:32:17.205Z,5.41
2023-02-28T11:33:16.790Z,5.66
2023-02-28T11:34:16.353Z,5.51
2023-02-28T11:35:16.838Z,5.58
2023-02-28T11:36:16.310Z,5.21
2023-02-28T11:37:17.092Z,5.63
2023-02-28T11:38:16.623Z,6.00
2023-02-28T11:39:17.145Z,6.20
2023-02-28T11:40:16.699Z,5.76
2023-02-28T11:41:16.375Z,5.72
2023-02-28T11:42:16.821Z,5.59
2023-02-28T11:43:16.350Z,5.37
2023-02-28T11:44:16.842Z,5.20
2023-02-28T11:45:16.379Z,5.31
2023-02-28T11:46:16.915Z,5.06
2023-02-28T11:47:16.467Z,5.30
2023-02-28T11:48:16.947Z,5.52
2023-02-28T11:49:16.448Z,5.68
2023-02-28T11:50:17.067Z,5.18
2023-02-28T11:51:16.598Z,5.14
2023-02-28T11:52:16.424Z,5.48
2023-02-28T11:53:16.943Z,5.68
2023-02-28T11:54:16.454Z,4.89
2023-02-28T11:55:16.983Z,4.73
2023-02-28T11:56:16.494Z,4.96
2023-02-28T11:57:17.045Z,5.07
2023-02-28T11:58:16.551Z,5.03
2023-02-28T11:59:17.065Z,5.46
2023-02-28T12:00:16.554Z,5.75
2023-02-28T12:01:17.061Z,5.30
2023-02-28T12:02:16.343Z,4.89
2023-02-28T12:03:16.929Z,4.82
2023-02-28T12:04:16.604Z,5.00
2023-02-28T12:05:17.102Z,5.00
2023-02-28T12:06:16.594Z,4.42
2023-02-28T12:07:17.143Z,4.37
2023-02-28T12:08:16.610Z,4.12
2023-02-28T12:09:17.135Z,4.14
2023-02-28T12:10:16.625Z,4.16
2023-02-28T12:11:17.135Z,4.06
2023-02-28T12:12:16.951Z,4.13
2023-02-28T12:13:16.498Z,4.05
2023-02-28T12:14:17.007Z,4.13
2023-02-28T12:15:16.505Z,4.03
2023-02-28T12:16:17.047Z,4.06
2023-02-28T12:17:16.567Z,4.13
2023-02-28T12:18:17.059Z,4.14
2023-02-28T12:19:16.586Z,4.16
2023-02-28T12:20:17.076Z,4.09
2023-02-28T12:21:16.576Z,4.06
2023-02-28T12:22:16.333Z,4.12
2023-02-28T12:23:16.847Z,4.27
2023-02-28T12:24:16.350Z,4.17
2023-02-28T12:25:16.869Z,4.09
2023-02-28T12:26:16.378Z,4.05
2023-02-28T12:27:16.935Z,4.14
2023-02-28T12:28:16.441Z,4.27
2023-02-28T12:29:16.951Z,4.23
2023-02-28T12:30:16.465Z,4.17
2023-02-28T12:31:16.973Z,4.13
2023-02-28T12:32:16.687Z,4.02
2023-02-28T12:33:16.348Z,3.93
2023-02-28T12:34:16.856Z,3.99
2023-02-28T12:35:16.398Z,4.03
2023-02-28T12:36:16.899Z,3.89
2023-02-28T12:37:16.385Z,3.85
2023-02-28T12:38:16.926Z,3.83
2023-02-28T12:39:16.417Z,3.86
2023-02-28T12:40:16.952Z,3.86
2023-02-28T12:41:16.540Z,3.90
2023-02-28T12:42:16.345Z,3.99
2023-02-28T12:43:16.837Z,3.99
2023-02-28T12:44:16.354Z,3.92
2023-02-28T12:45:16.857Z,4.05
2023-02-28T12:46:16.462Z,4.10
2023-02-28T12:47:17.189Z,3.97
2023-02-28T12:48:16.723Z,4.00
2023-02-28T12:49:17.272Z,4.14
2023-02-28T12:50:16.782Z,4.13
2023-02-28T12:51:17.283Z,4.13
2023-02-28T12:52:16.783Z,4.10
2023-02-28T12:53:17.352Z,4.10
2023-02-28T12:54:16.839Z,4.28
2023-02-28T12:55:16.344Z,4.30
2023-02-28T12:56:16.835Z,4.17
2023-02-28T12:57:16.330Z,4.18
2023-02-28T12:58:16.891Z,4.23
2023-02-28T12:59:16.452Z,4.24
2023-02-28T13:00:17.004Z,4.18
2023-02-28T13:01:16.621Z,4.16
2023-02-28T13:02:16.508Z,4.09
2023-02-28T13:03:17.088Z,4.20